createdAt,value
2022-07-31T00:04:32.396Z,15.99
2022-07-31T00:14:34.881Z,15.89
2022-07-31T00:24:37.205Z,15.82
2022-07-31T00:34:39.616Z,15.69
2022-07-31T00:44:41.894Z,15.59
2022-07-31T00:54:44.194Z,15.55
2022-07-31T01:04:46.470Z,15.53
2022-07-31T01:14:55.256Z,15.59
2022-07-31T01:25:19.374Z,15.68
2022-07-31T01:35:24.017Z,15.63
2022-07-31T01:45:27.974Z,15.54
2022-07-31T01:56:01.974Z,15.47
2022-07-31T02:05:55.706Z,15.49
2022-07-31T02:15:59.608Z,15.45
2022-07-31T02:26:03.554Z,15.33
2022-07-31T02:36:07.219Z,15.22
2022-07-31T02:46:10.703Z,15.07
2022-07-31T02:56:13.695Z,15.02
2022-07-31T03:06:16.580Z,15.09
2022-07-31T03:16:19.368Z,15.25
2022-07-31T03:26:22.048Z,15.39
2022-07-31T03:36:24.571Z,15.46
2022-07-31T03:46:27.099Z,15.48
2022-07-31T03:56:29.647Z,15.48
2022-07-31T04:06:31.867Z,15.32
2022-07-31T04:16:33.976Z,15.24
2022-07-31T04:26:36.723Z,15.20
2022-07-31T04:36:39.882Z,15.11
2022-07-31T04:46:44.131Z,15.06
2022-07-31T04:56:48.662Z,15.12
2022-07-31T05:06:52.696Z,15.14
2022-07-31T05:16:54.996Z,15.41
2022-07-31T05:26:57.421Z,15.71
2022-07-31T05:37:03.880Z,15.96
2022-07-31T05:47:08.440Z,16.28
2022-07-31T05:57:10.608Z,16.59
2022-07-31T06:07:13.004Z,16.63
2022-07-31T06:17:15.727Z,17.12
2022-07-31T06:27:33.301Z,17.73
2022-07-31T06:37:37.107Z,18.36
2022-07-31T06:47:39.229Z,18.96
2022-07-31T06:57:41.951Z,19.66
2022-07-31T07:07:44.684Z,20.19
2022-07-31T07:17:47.884Z,20.73
2022-07-31T07:27:50.730Z,21.21
2022-07-31T07:37:53.776Z,21.76
2022-07-31T07:48:06.496Z,22.40
2022-07-31T07:58:12.202Z,23.06
2022-07-31T08:08:14.728Z,23.69
2022-07-31T08:18:18.236Z,24.25
2022-07-31T08:28:24.090Z,24.72
2022-07-31T08:38:26.650Z,25.18
2022-07-31T08:48:32.997Z,25.53
2022-07-31T08:58:39.562Z,25.99
2022-07-31T09:08:43.794Z,26.48
2022-07-31T09:19:03.734Z,26.94
2022-07-31T09:29:40.842Z,27.29
2022-07-31T09:39:52.794Z,27.55
2022-07-31T09:49:58.688Z,27.94
2022-07-31T10:00:01.349Z,28.38
2022-07-31T10:10:08.312Z,29.21
2022-07-31T10:20:17.780Z,29.57
2022-07-31T10:30:24.815Z,30.76
2022-07-31T10:40:40.661Z,30.43
2022-07-31T10:50:47.669Z,30.42
2022-07-31T11:00:53.322Z,31.05
2022-07-31T11:10:57.734Z,31.52
2022-07-31T11:21:13.633Z,31.59
2022-07-31T11:31:30.945Z,31.31
2022-07-31T11:41:44.241Z,30.95
2022-07-31T11:51:48.453Z,31.15
2022-07-31T12:01:51.077Z,31.42
2022-07-31T12:11:54.431Z,31.68
2022-07-31T12:22:05.305Z,32.26
2022-07-31T12:32:08.540Z,32.03
2022-07-31T12:42:22.244Z,32.32
2022-07-31T12:52:35.260Z,32.91
2022-07-31T13:02:38.258Z,32.63
2022-07-31T13:12:41.239Z,33.29
2022-07-31T13:22:44.235Z,33.78
2022-07-31T13:32:47.785Z,34.41
2022-07-31T13:42:50.401Z,34.36
2022-07-31T13:52:52.989Z,34.65
2022-07-31T14:02:56.011Z,33.70
2022-07-31T14:12:59.969Z,33.98
2022-07-31T14:23:05.381Z,34.28
2022-07-31T14:33:08.435Z,34.38
2022-07-31T14:43:12.639Z,35.19
2022-07-31T14:53:15.910Z,35.61
2022-07-31T15:03:18.768Z,35.61
2022-07-31T15:13:21.645Z,34.90
2022-07-31T15:23:25.909Z,33.40
2022-07-31T15:33:39.939Z,32.45
2022-07-31T15:43:43.992Z,32.02
2022-07-31T15:53:46.403Z,32.05
2022-07-31T16:03:51.125Z,31.56
2022-07-31T16:13:57.341Z,30.89
2022-07-31T16:23:59.926Z,30.47
2022-07-31T16:34:03.246Z,30.43
2022-07-31T16:44:06.759Z,30.64
2022-07-31T16:54:14.456Z,30.53
2022-07-31T17:04:19.233Z,30.43
2022-07-31T17:14:25.884Z,29.46
2022-07-31T17:24:28.389Z,28.88
2022-07-31T17:34:30.922Z,28.39
2022-07-31T17:44:33.962Z,27.97
2022-07-31T17:54:37.355Z,27.69
2022-07-31T18:04:40.639Z,27.27
2022-07-31T18:14:45.332Z,26.92
2022-07-31T18:24:49.974Z,26.43
2022-07-31T18:34:53.145Z,25.84
2022-07-31T18:44:57.602Z,25.30
2022-07-31T18:55:01.237Z,24.78
2022-07-31T19:05:09.033Z,24.30
2022-07-31T19:15:18.126Z,23.84
2022-07-31T19:25:20.749Z,23.39
2022-07-31T19:35:24.923Z,22.95
2022-07-31T19:45:28.246Z,22.54
2022-07-31T19:55:36.146Z,22.14
2022-07-31T20:05:40.432Z,21.77
2022-07-31T20:15:51.700Z,21.44
2022-07-31T20:25:55.196Z,21.13
2022-07-31T20:35:57.737Z,20.85
2022-07-31T20:46:01.684Z,20.59
2022-07-31T20:56:06.213Z,20.34
2022-07-31T21:06:09.591Z,20.19
2022-07-31T21:16:12.426Z,20.03
2022-07-31T21:26:16.989Z,19.89
2022-07-31T21:36:21.451Z,19.76
2022-07-31T21:46:25.438Z,19.71
2022-07-31T21:56:28.819Z,19.87
2022-07-31T22:06:50.318Z,19.64
2022-07-31T22:16:52.902Z,19.44
2022-07-31T22:27:16.709Z,19.24
2022-07-31T22:37:19.474Z,19.07
2022-07-31T22:47:23.042Z,18.85
2022-07-31T22:57:25.424Z,18.57
2022-07-31T23:07:27.821Z,18.35
2022-07-31T23:17:30.096Z,18.23
2022-07-31T23:27:33.455Z,18.05
2022-07-31T23:37:35.692Z,17.86
2022-07-31T23:47:45.444Z,17.73
2022-07-31T23:57:48.945Z,17.59
